GAP2363 RPVM-RPMD
Flight info
| Callsign | GAP2363 |
|---|---|
| Flight time | 0h 50m |
| Altitude | 23000 |
| Route | CAREB1Q CAREB DCT EVLIN W9A BN W9 RIMAR RIMAR2R |
| Aircraft | DH8D/M-SDE2E3FGRY/H |
Departure
| Time | 2026-05-06 06:11 |
|---|---|
| Airport | Mactan Cebu International Airport (RPVM) |
Arrival
| Time | 2026-05-06 07:01 |
|---|---|
| Airport | Francisco Bangoy International Airport (RPMD) |
| Time | Latitude | Longitude | Altitude | Speed | Heading |
|---|---|---|---|---|---|
| 2026-05-06 05:59 | 10.31765 | 123.98259 | 38 ft | 0 kts | 44° |
| 2026-05-06 06:01 | 10.31766 | 123.98260 | 38 ft | 0 kts | 44° |
| 2026-05-06 06:02 | 10.31758 | 123.98252 | 38 ft | 2 kts | 48° |
| 2026-05-06 06:02 | 10.31751 | 123.98239 | 38 ft | 2 kts | 78° |
| 2026-05-06 06:02 | 10.31751 | 123.98224 | 38 ft | 2 kts | 105° |
| 2026-05-06 06:03 | 10.31758 | 123.98211 | 38 ft | 1 kts | 132° |
| 2026-05-06 06:03 | 10.31755 | 123.98213 | 38 ft | 3 kts | 144° |
| 2026-05-06 06:03 | 10.31733 | 123.98214 | 38 ft | 3 kts | 201° |
| 2026-05-06 06:03 | 10.31703 | 123.98186 | 38 ft | 4 kts | 225° |
| 2026-05-06 06:04 | 10.31691 | 123.98173 | 38 ft | 0 kts | 225° |
| 2026-05-06 06:04 | 10.31691 | 123.98174 | 38 ft | 0 kts | 225° |
| 2026-05-06 06:05 | 10.31691 | 123.98173 | 38 ft | 0 kts | 225° |
| 2026-05-06 06:06 | 10.31684 | 123.98166 | 38 ft | 2 kts | 226° |
| 2026-05-06 06:06 | 10.31661 | 123.98144 | 38 ft | 7 kts | 222° |
| 2026-05-06 06:06 | 10.31608 | 123.98116 | 38 ft | 9 kts | 174° |
| 2026-05-06 06:07 | 10.31558 | 123.98154 | 38 ft | 10 kts | 133° |
| 2026-05-06 06:07 | 10.31502 | 123.98212 | 38 ft | 12 kts | 134° |
| 2026-05-06 06:07 | 10.31427 | 123.98206 | 37 ft | 10 kts | 224° |
| 2026-05-06 06:07 | 10.31389 | 123.98168 | 37 ft | 12 kts | 224° |
| 2026-05-06 06:08 | 10.31315 | 123.98093 | 37 ft | 18 kts | 225° |
| 2026-05-06 06:08 | 10.31160 | 123.97938 | 37 ft | 24 kts | 225° |
| 2026-05-06 06:08 | 10.31084 | 123.97862 | 37 ft | 22 kts | 224° |
| 2026-05-06 06:08 | 10.30980 | 123.97758 | 37 ft | 20 kts | 226° |
| 2026-05-06 06:09 | 10.30874 | 123.97649 | 37 ft | 21 kts | 225° |
| 2026-05-06 06:09 | 10.30719 | 123.97494 | 37 ft | 26 kts | 224° |
| 2026-05-06 06:09 | 10.30626 | 123.97401 | 37 ft | 28 kts | 225° |
| 2026-05-06 06:09 | 10.30494 | 123.97269 | 37 ft | 24 kts | 225° |
| 2026-05-06 06:10 | 10.30401 | 123.97177 | 38 ft | 12 kts | 223° |
| 2026-05-06 06:10 | 10.30339 | 123.97171 | 37 ft | 9 kts | 135° |
| 2026-05-06 06:10 | 10.30303 | 123.97209 | 37 ft | 3 kts | 115° |
| 2026-05-06 06:10 | 10.30328 | 123.97244 | 37 ft | 17 kts | 45° |
| 2026-05-06 06:11 | 10.30475 | 123.97391 | 38 ft | 75 kts | 45° |
| 2026-05-06 06:11 | 10.31288 | 123.98210 | 109 ft | 151 kts | 44° |
| 2026-05-06 06:11 | 10.31785 | 123.98723 | 379 ft | 160 kts | 46° |
| 2026-05-06 06:11 | 10.32878 | 123.99822 | 1143 ft | 172 kts | 44° |
| 2026-05-06 06:12 | 10.33452 | 124.00394 | 1586 ft | 175 kts | 44° |
| 2026-05-06 06:12 | 10.34612 | 124.01592 | 2304 ft | 185 kts | 53° |
| 2026-05-06 06:12 | 10.34928 | 124.02383 | 2672 ft | 185 kts | 84° |
| 2026-05-06 06:12 | 10.34656 | 124.03671 | 3190 ft | 189 kts | 108° |
| 2026-05-06 06:13 | 10.34171 | 124.04917 | 3736 ft | 191 kts | 108° |
| 2026-05-06 06:13 | 10.33514 | 124.06586 | 4505 ft | 193 kts | 108° |
| 2026-05-06 06:13 | 10.33006 | 124.07858 | 5127 ft | 196 kts | 109° |
| 2026-05-06 06:13 | 10.32664 | 124.08714 | 5539 ft | 196 kts | 109° |
| 2026-05-06 06:14 | 10.31984 | 124.10413 | 6312 ft | 198 kts | 109° |
| 2026-05-06 06:14 | 10.31638 | 124.11276 | 6679 ft | 200 kts | 109° |
| 2026-05-06 06:14 | 10.30943 | 124.13007 | 7444 ft | 201 kts | 109° |
| 2026-05-06 06:14 | 10.30590 | 124.13883 | 7840 ft | 203 kts | 109° |
| 2026-05-06 06:15 | 10.29880 | 124.15646 | 8616 ft | 205 kts | 109° |
| 2026-05-06 06:15 | 10.29337 | 124.16993 | 9228 ft | 207 kts | 109° |
| 2026-05-06 06:15 | 10.28976 | 124.17888 | 9633 ft | 208 kts | 110° |
| 2026-05-06 06:15 | 10.28430 | 124.19241 | 10197 ft | 210 kts | 110° |
| 2026-05-06 06:16 | 10.27870 | 124.20630 | 10759 ft | 213 kts | 110° |
| 2026-05-06 06:16 | 10.27231 | 124.21985 | 11284 ft | 220 kts | 117° |
| 2026-05-06 06:16 | 10.26417 | 124.23377 | 11640 ft | 239 kts | 118° |
| 2026-05-06 06:16 | 10.25540 | 124.24837 | 12222 ft | 246 kts | 119° |
| 2026-05-06 06:17 | 10.24638 | 124.26335 | 12866 ft | 250 kts | 119° |
| 2026-05-06 06:18 | 10.17672 | 124.37864 | 17922 ft | 274 kts | 120° |
| 2026-05-06 06:19 | 10.16670 | 124.39520 | 18650 ft | 278 kts | 120° |
| 2026-05-06 06:19 | 10.15661 | 124.41187 | 19385 ft | 280 kts | 120° |
| 2026-05-06 06:19 | 10.14651 | 124.42857 | 20115 ft | 283 kts | 120° |
| 2026-05-06 06:19 | 10.13624 | 124.44553 | 20886 ft | 285 kts | 120° |
| 2026-05-06 06:20 | 10.12935 | 124.45691 | 21393 ft | 286 kts | 119° |
| 2026-05-06 06:20 | 10.11891 | 124.47414 | 22135 ft | 289 kts | 120° |
| 2026-05-06 06:20 | 10.10457 | 124.49786 | 22769 ft | 308 kts | 120° |
| 2026-05-06 06:20 | 10.09293 | 124.51718 | 22878 ft | 332 kts | 120° |
| 2026-05-06 06:21 | 10.08060 | 124.53764 | 22903 ft | 352 kts | 120° |
| 2026-05-06 06:21 | 10.06776 | 124.55891 | 22890 ft | 351 kts | 120° |
| 2026-05-06 06:21 | 10.05496 | 124.58011 | 22890 ft | 355 kts | 120° |
| 2026-05-06 06:21 | 10.04201 | 124.60152 | 22890 ft | 358 kts | 120° |
| 2026-05-06 06:22 | 10.02895 | 124.62310 | 22891 ft | 361 kts | 120° |
| 2026-05-06 06:22 | 10.01579 | 124.64484 | 22890 ft | 362 kts | 120° |
| 2026-05-06 06:22 | 10.00253 | 124.66673 | 22889 ft | 364 kts | 120° |
| 2026-05-06 06:22 | 9.98926 | 124.68863 | 22887 ft | 362 kts | 120° |
| 2026-05-06 06:23 | 9.97631 | 124.70998 | 22881 ft | 354 kts | 120° |
| 2026-05-06 06:23 | 9.96351 | 124.73109 | 22878 ft | 348 kts | 120° |
| 2026-05-06 06:23 | 9.95088 | 124.75191 | 22879 ft | 344 kts | 120° |
| 2026-05-06 06:23 | 9.93836 | 124.77254 | 22882 ft | 341 kts | 120° |
| 2026-05-06 06:24 | 9.92599 | 124.79292 | 22881 ft | 338 kts | 120° |
| 2026-05-06 06:24 | 9.91371 | 124.81313 | 22881 ft | 335 kts | 120° |
| 2026-05-06 06:24 | 9.90152 | 124.83321 | 22880 ft | 334 kts | 120° |
| 2026-05-06 06:24 | 9.88936 | 124.85324 | 22882 ft | 332 kts | 120° |
| 2026-05-06 06:25 | 9.87722 | 124.87321 | 22882 ft | 331 kts | 120° |
| 2026-05-06 06:25 | 9.86509 | 124.89318 | 22887 ft | 336 kts | 120° |
| 2026-05-06 06:25 | 9.83988 | 124.93468 | 22887 ft | 351 kts | 120° |
| 2026-05-06 06:26 | 9.82700 | 124.95586 | 22884 ft | 350 kts | 120° |
| 2026-05-06 06:26 | 9.81427 | 124.97681 | 22884 ft | 350 kts | 120° |
| 2026-05-06 06:26 | 9.80154 | 124.99776 | 22884 ft | 350 kts | 120° |
| 2026-05-06 06:26 | 9.78881 | 125.01868 | 22884 ft | 349 kts | 120° |
| 2026-05-06 06:27 | 9.77547 | 125.03945 | 22870 ft | 350 kts | 126° |
| 2026-05-06 06:27 | 9.75675 | 125.05524 | 22908 ft | 351 kts | 146° |
| 2026-05-06 06:27 | 9.73534 | 125.06709 | 22882 ft | 353 kts | 149° |
| 2026-05-06 06:27 | 9.71351 | 125.07881 | 22879 ft | 354 kts | 149° |
| 2026-05-06 06:28 | 9.69169 | 125.09049 | 22881 ft | 354 kts | 149° |
| 2026-05-06 06:28 | 9.66975 | 125.10224 | 22880 ft | 354 kts | 149° |
| 2026-05-06 06:28 | 9.64811 | 125.11385 | 22876 ft | 354 kts | 149° |
| 2026-05-06 06:28 | 9.62610 | 125.12566 | 22875 ft | 354 kts | 149° |
| 2026-05-06 06:29 | 9.60442 | 125.13731 | 22872 ft | 354 kts | 149° |
| 2026-05-06 06:29 | 9.58248 | 125.14905 | 22873 ft | 354 kts | 149° |
| 2026-05-06 06:29 | 9.56058 | 125.16071 | 22872 ft | 354 kts | 149° |
| 2026-05-06 06:29 | 9.53894 | 125.17223 | 22870 ft | 354 kts | 149° |
| 2026-05-06 06:30 | 9.51701 | 125.18391 | 22874 ft | 354 kts | 149° |
| 2026-05-06 06:30 | 9.49506 | 125.19559 | 22878 ft | 354 kts | 149° |
| 2026-05-06 06:30 | 9.47313 | 125.20728 | 22878 ft | 354 kts | 149° |
| 2026-05-06 06:30 | 9.45122 | 125.21896 | 22874 ft | 354 kts | 149° |
| 2026-05-06 06:31 | 9.42957 | 125.23049 | 22875 ft | 354 kts | 149° |
| 2026-05-06 06:31 | 9.40762 | 125.24218 | 22876 ft | 354 kts | 149° |
| 2026-05-06 06:31 | 9.38575 | 125.25383 | 22874 ft | 355 kts | 149° |
| 2026-05-06 06:31 | 9.36372 | 125.26556 | 22876 ft | 356 kts | 149° |
| 2026-05-06 06:32 | 9.34168 | 125.27731 | 22878 ft | 357 kts | 149° |
| 2026-05-06 06:32 | 9.31960 | 125.28907 | 22879 ft | 358 kts | 149° |
| 2026-05-06 06:32 | 9.29747 | 125.30085 | 22881 ft | 358 kts | 149° |
| 2026-05-06 06:32 | 9.27561 | 125.31248 | 22879 ft | 359 kts | 149° |
| 2026-05-06 06:33 | 9.25321 | 125.32442 | 22882 ft | 359 kts | 149° |
| 2026-05-06 06:33 | 9.23116 | 125.33614 | 22880 ft | 359 kts | 149° |
| 2026-05-06 06:33 | 9.20914 | 125.34786 | 22882 ft | 360 kts | 149° |
| 2026-05-06 06:33 | 9.18666 | 125.35983 | 22881 ft | 360 kts | 149° |
| 2026-05-06 06:34 | 9.16443 | 125.37165 | 22884 ft | 360 kts | 149° |
| 2026-05-06 06:34 | 9.14228 | 125.38344 | 22887 ft | 360 kts | 149° |
| 2026-05-06 06:34 | 9.12021 | 125.39517 | 22890 ft | 360 kts | 149° |
| 2026-05-06 06:34 | 9.09799 | 125.40699 | 22893 ft | 360 kts | 149° |
| 2026-05-06 06:35 | 9.08314 | 125.41489 | 22898 ft | 360 kts | 149° |
| 2026-05-06 06:35 | 9.07561 | 125.41889 | 22898 ft | 360 kts | 149° |
| 2026-05-06 06:36 | 8.98671 | 125.46614 | 22897 ft | 360 kts | 149° |
| 2026-05-06 06:36 | 8.96453 | 125.47787 | 22893 ft | 360 kts | 150° |
| 2026-05-06 06:36 | 8.94055 | 125.48575 | 22893 ft | 363 kts | 168° |
| 2026-05-06 06:36 | 8.91546 | 125.48860 | 22883 ft | 364 kts | 171° |
| 2026-05-06 06:37 | 8.89083 | 125.49104 | 22889 ft | 364 kts | 171° |
| 2026-05-06 06:37 | 8.86470 | 125.49361 | 22900 ft | 364 kts | 171° |
| 2026-05-06 06:37 | 8.83935 | 125.49612 | 22904 ft | 364 kts | 171° |
| 2026-05-06 06:37 | 8.81376 | 125.49867 | 22904 ft | 364 kts | 171° |
| 2026-05-06 06:38 | 8.78877 | 125.50117 | 22906 ft | 364 kts | 171° |
| 2026-05-06 06:38 | 8.76342 | 125.50372 | 22905 ft | 364 kts | 171° |
| 2026-05-06 06:38 | 8.73797 | 125.50628 | 22908 ft | 364 kts | 171° |
| 2026-05-06 06:38 | 8.71286 | 125.50881 | 22907 ft | 364 kts | 171° |
| 2026-05-06 06:39 | 8.68749 | 125.51138 | 22906 ft | 365 kts | 171° |
| 2026-05-06 06:39 | 8.66201 | 125.51396 | 22907 ft | 366 kts | 171° |
| 2026-05-06 06:39 | 8.63645 | 125.51655 | 22906 ft | 368 kts | 171° |
| 2026-05-06 06:39 | 8.61088 | 125.51914 | 22905 ft | 369 kts | 171° |
| 2026-05-06 06:40 | 8.58527 | 125.52174 | 22906 ft | 370 kts | 171° |
| 2026-05-06 06:40 | 8.55942 | 125.52436 | 22904 ft | 371 kts | 171° |
| 2026-05-06 06:40 | 8.53370 | 125.52696 | 22906 ft | 371 kts | 171° |
| 2026-05-06 06:40 | 8.50792 | 125.52950 | 22906 ft | 371 kts | 172° |
| 2026-05-06 06:41 | 8.48219 | 125.53181 | 22908 ft | 369 kts | 172° |
| 2026-05-06 06:41 | 8.45655 | 125.53407 | 22917 ft | 368 kts | 172° |
| 2026-05-06 06:41 | 8.43112 | 125.53632 | 22932 ft | 367 kts | 172° |
| 2026-05-06 06:41 | 8.40568 | 125.53858 | 22944 ft | 366 kts | 172° |
| 2026-05-06 06:42 | 8.38020 | 125.54085 | 22953 ft | 365 kts | 172° |
| 2026-05-06 06:42 | 8.35487 | 125.54312 | 22962 ft | 364 kts | 172° |
| 2026-05-06 06:42 | 8.32964 | 125.54537 | 22972 ft | 364 kts | 172° |
| 2026-05-06 06:42 | 8.30423 | 125.54765 | 22978 ft | 364 kts | 172° |
| 2026-05-06 06:43 | 8.27882 | 125.54992 | 22988 ft | 363 kts | 172° |
| 2026-05-06 06:43 | 8.25369 | 125.55218 | 22999 ft | 366 kts | 172° |
| 2026-05-06 06:43 | 8.22796 | 125.55449 | 23002 ft | 368 kts | 172° |
| 2026-05-06 06:43 | 8.20252 | 125.55676 | 22994 ft | 367 kts | 172° |
| 2026-05-06 06:44 | 8.17687 | 125.55906 | 22983 ft | 367 kts | 172° |
| 2026-05-06 06:44 | 8.15127 | 125.56135 | 22982 ft | 366 kts | 172° |
| 2026-05-06 06:44 | 8.12604 | 125.56361 | 22982 ft | 365 kts | 172° |
| 2026-05-06 06:44 | 8.10067 | 125.56588 | 22977 ft | 365 kts | 172° |
| 2026-05-06 06:45 | 8.07530 | 125.56815 | 22974 ft | 364 kts | 172° |
| 2026-05-06 06:45 | 8.04982 | 125.57044 | 22971 ft | 363 kts | 172° |
| 2026-05-06 06:45 | 8.02500 | 125.57265 | 22838 ft | 362 kts | 172° |
| 2026-05-06 06:45 | 7.99939 | 125.57497 | 22455 ft | 365 kts | 172° |
| 2026-05-06 06:46 | 7.97388 | 125.57677 | 21979 ft | 369 kts | 176° |
| 2026-05-06 06:46 | 7.94872 | 125.57249 | 21572 ft | 371 kts | 192° |
| 2026-05-06 06:46 | 7.92348 | 125.56512 | 21069 ft | 373 kts | 193° |
| 2026-05-06 06:46 | 7.89867 | 125.55774 | 20594 ft | 372 kts | 193° |
| 2026-05-06 06:47 | 7.87375 | 125.55032 | 20124 ft | 370 kts | 194° |
| 2026-05-06 06:47 | 7.84923 | 125.54305 | 19659 ft | 369 kts | 193° |
| 2026-05-06 06:47 | 7.82451 | 125.53573 | 19181 ft | 368 kts | 193° |
| 2026-05-06 06:47 | 7.79979 | 125.52844 | 18703 ft | 367 kts | 194° |
| 2026-05-06 06:48 | 7.77547 | 125.52126 | 18247 ft | 366 kts | 194° |
| 2026-05-06 06:48 | 7.75095 | 125.51405 | 17782 ft | 365 kts | 194° |
| 2026-05-06 06:48 | 7.72658 | 125.50689 | 17314 ft | 365 kts | 194° |
| 2026-05-06 06:48 | 7.70193 | 125.49965 | 16838 ft | 366 kts | 194° |
| 2026-05-06 06:49 | 7.67763 | 125.49252 | 16392 ft | 365 kts | 194° |
| 2026-05-06 06:49 | 7.65296 | 125.48528 | 15923 ft | 366 kts | 194° |
| 2026-05-06 06:49 | 7.62863 | 125.47815 | 15450 ft | 366 kts | 194° |
| 2026-05-06 06:49 | 7.60419 | 125.47099 | 14976 ft | 365 kts | 194° |
| 2026-05-06 06:50 | 7.57961 | 125.46380 | 14514 ft | 364 kts | 194° |
| 2026-05-06 06:50 | 7.55526 | 125.45668 | 14047 ft | 361 kts | 194° |
| 2026-05-06 06:50 | 7.53101 | 125.44958 | 13579 ft | 358 kts | 194° |
| 2026-05-06 06:50 | 7.50745 | 125.44269 | 13176 ft | 353 kts | 194° |
| 2026-05-06 06:51 | 7.48373 | 125.43574 | 12759 ft | 348 kts | 194° |
| 2026-05-06 06:51 | 7.46061 | 125.42898 | 12323 ft | 344 kts | 195° |
| 2026-05-06 06:51 | 7.43768 | 125.42226 | 11897 ft | 341 kts | 195° |
| 2026-05-06 06:51 | 7.41525 | 125.41570 | 11458 ft | 332 kts | 195° |
| 2026-05-06 06:52 | 7.39362 | 125.40939 | 11032 ft | 318 kts | 194° |
| 2026-05-06 06:52 | 7.37264 | 125.40324 | 10635 ft | 305 kts | 195° |
| 2026-05-06 06:52 | 7.35249 | 125.39742 | 10231 ft | 294 kts | 193° |
| 2026-05-06 06:52 | 7.33248 | 125.39627 | 9855 ft | 284 kts | 170° |
| 2026-05-06 06:53 | 7.31319 | 125.40000 | 9495 ft | 283 kts | 166° |
| 2026-05-06 06:53 | 7.29401 | 125.40407 | 9137 ft | 283 kts | 166° |
| 2026-05-06 06:53 | 7.27459 | 125.40823 | 8770 ft | 282 kts | 166° |
| 2026-05-06 06:53 | 7.25547 | 125.41234 | 8397 ft | 281 kts | 166° |
| 2026-05-06 06:54 | 7.23618 | 125.41647 | 8044 ft | 279 kts | 166° |
| 2026-05-06 06:54 | 7.21731 | 125.42050 | 7694 ft | 277 kts | 166° |
| 2026-05-06 06:54 | 7.19834 | 125.42454 | 7343 ft | 275 kts | 166° |
| 2026-05-06 06:54 | 7.17972 | 125.42848 | 6997 ft | 274 kts | 166° |
| 2026-05-06 06:55 | 7.16101 | 125.43243 | 6641 ft | 274 kts | 166° |
| 2026-05-06 06:55 | 7.14243 | 125.43636 | 6285 ft | 269 kts | 166° |
| 2026-05-06 06:55 | 7.12400 | 125.44025 | 5942 ft | 266 kts | 166° |
| 2026-05-06 06:55 | 7.10588 | 125.44408 | 5604 ft | 264 kts | 166° |
| 2026-05-06 06:56 | 7.08802 | 125.44784 | 5269 ft | 263 kts | 166° |
| 2026-05-06 06:56 | 7.07022 | 125.45250 | 4898 ft | 263 kts | 155° |
| 2026-05-06 06:56 | 7.05551 | 125.46269 | 4571 ft | 250 kts | 137° |
| 2026-05-06 06:56 | 7.04268 | 125.47382 | 4247 ft | 239 kts | 137° |
| 2026-05-06 06:57 | 7.03034 | 125.48456 | 3938 ft | 230 kts | 137° |
| 2026-05-06 06:57 | 7.01940 | 125.49592 | 3435 ft | 228 kts | 118° |
| 2026-05-06 06:57 | 7.01722 | 125.51073 | 3091 ft | 211 kts | 73° |
| 2026-05-06 06:57 | 7.02430 | 125.52350 | 2848 ft | 209 kts | 53° |
| 2026-05-06 06:58 | 7.03307 | 125.53512 | 2582 ft | 205 kts | 51° |
| 2026-05-06 06:58 | 7.04188 | 125.54624 | 2317 ft | 199 kts | 50° |
| 2026-05-06 06:58 | 7.05020 | 125.55650 | 2077 ft | 177 kts | 50° |
| 2026-05-06 06:58 | 7.05752 | 125.56546 | 1865 ft | 156 kts | 50° |
| 2026-05-06 06:59 | 7.06398 | 125.57330 | 1688 ft | 138 kts | 50° |
| 2026-05-06 06:59 | 7.07006 | 125.58076 | 1512 ft | 137 kts | 50° |
| 2026-05-06 06:59 | 7.07609 | 125.58809 | 1331 ft | 135 kts | 49° |
| 2026-05-06 06:59 | 7.08212 | 125.59533 | 1161 ft | 135 kts | 49° |
| 2026-05-06 07:00 | 7.08822 | 125.60259 | 984 ft | 135 kts | 49° |
| 2026-05-06 07:00 | 7.09436 | 125.60977 | 791 ft | 135 kts | 47° |
| 2026-05-06 07:00 | 7.10047 | 125.61691 | 622 ft | 133 kts | 49° |
| 2026-05-06 07:00 | 7.10668 | 125.62387 | 444 ft | 135 kts | 47° |
| 2026-05-06 07:01 | 7.11287 | 125.63111 | 274 ft | 134 kts | 48° |
| 2026-05-06 07:01 | 7.11891 | 125.63810 | 126 ft | 132 kts | 48° |
| 2026-05-06 07:01 | 7.12427 | 125.64433 | 117 ft | 91 kts | 49° |
| 2026-05-06 07:01 | 7.12728 | 125.64783 | 117 ft | 36 kts | 48° |
| 2026-05-06 07:02 | 7.12822 | 125.64893 | 117 ft | 12 kts | 50° |
| 2026-05-06 07:02 | 7.12875 | 125.64922 | 117 ft | 7 kts | 344° |
| 2026-05-06 07:02 | 7.12916 | 125.64889 | 117 ft | 8 kts | 319° |
| 2026-05-06 07:02 | 7.12965 | 125.64847 | 117 ft | 9 kts | 319° |
| 2026-05-06 07:03 | 7.13010 | 125.64804 | 117 ft | 7 kts | 301° |
| 2026-05-06 07:03 | 7.13010 | 125.64755 | 117 ft | 6 kts | 279° |
| 2026-05-06 07:03 | 7.13038 | 125.64724 | 117 ft | 5 kts | 319° |
| 2026-05-06 07:03 | 7.13064 | 125.64701 | 117 ft | 4 kts | 319° |
| 2026-05-06 07:04 | 7.13067 | 125.64698 | 117 ft | 0 kts | 319° |